Ride Results

TOM QUILTY GOLD CUP (23-06-2023)
Ride distance: 160.0 km

Outcomes - TOM QUILTY GOLD CUP (23-06-2023)
Division No. of Entries Retired / DNE Completed Withdrawn Ineligible V/O Percentage Completed
HW 20 - 11 1 - 8 55.00%
MW 79 - 58 2 - 19 73.42%
LW 62 - 47 4 - 11 75.81%
JN 21 - 15 1 - 5 71.43%
Totals 182 - 131 8 - 43 71.98%
Results - TOM QUILTY GOLD CUP (23-06-2023)
No. Rider Horse Place Time Leg Speeds Total
Km/Hr
H/R bpm
Heavyweight
414 Luke Annetts Churinga Taboo 1 (BC) 11:44:43 13.4, 13.4, 13.4, 13.5, 15.1 13.62 35, 56, 55, 53, 53, 49 (Avg:53)
406 Allyson Taylor Norfolk Park Apocalypse 2 12:25:01 18.8, 15.2, 13.9, 11.4, 5.6 12.89 36, 52, 56, 53, 53, 57 (Avg:54)
405 Duncan Woodhead San Ella Navit 2 12:25:01 16.0, 12.6, 12.2, 10.8, 11.3 12.89 39, 54, 56, 55, 54, 54 (Avg:54)
402 Tahnaya Mercieca Henley Farm Fursan 4 13:27:28 12.8, 11.8, 10.3, 10.6, 16.2 11.89 43, 54, 52, 51, 51, 49 (Avg:51)
404 Peter Field Rkayn Xuberant 5 14:17:29 12.4, 10.8, 10.6, 10.6, 10.9 11.20 33, 44, 46, 47, 49, 42 (Avg:45)
419 Noni Seagrim Honey Bee 6 14:41:05 13.3, 11.7, 9.8, 8.8, 9.5 10.90 32, 51, 57, 56, 50, 49 (Avg:52)
418 Hannah Mitchell Sahara Park Miss Rubicon 7 14:41:06 13.3, 11.7, 9.8, 8.8, 9.4 10.90 38, 58, 60, 56, 50, 46 (Avg:54)
412 Shelley Jones Shellal Blue 8 15:56:55 11.4, 10.0, 9.4, 9.0, 9.4 10.03 36, 56, 54, 51, 49, 49 (Avg:51)
407 Corey Nix Homeleigh Mountain Kosmo 9 17:35:57 10.9, 10.5, 9.0, 5.7, 8.6 9.09 34, 55, 58, 56, 51, 56, 54 (Avg:55)
401 Evie Whitton Follydown Gai Emerald 10 18:52:51 11.0, 8.2, 8.7, 6.7, 6.4 8.47 31, 47, 56, 52, 57, 59 (Avg:54)
408 Louise Mackey Marlou Park Billy's Alibi 11 20:01:27 9.9, 7.9, 7.3, 6.9, 7.0 7.99 38, 46, 55, 52, 56, 54 (Avg:52)
411 Shane Butler Burralga Angelikh Lame L4 11:41:57 14.3, 12.2, 11.7, 10.2 12.31 60, 56, 51, 58, 56 (Avg:55)
410 Mark Nimon Abbeywood Zsarina Metabolics severe L4 (Rep) 12:28:25 13.7, 13.5, 10.5, 7.9 11.54 32, 52, 56, 57, 55, 56, 52 (Avg:54)
420 Gavin Bartlett Longrun Astra Lame L4 17:06:57 9.3, 9.2, 7.5, 6.9 8.41 42, 58, 53, 54, 57 (Avg:55)
403 Troy Butler Falcon Hill Mahbeer Lame L3 11:21:21 12.0, 10.1, 9.9 10.74 29, 51, 57, 52 (Avg:53)
413 Ellie Hill Crystalilly W/D on track L3 14:14:33 - 8.57 38, 44, 56, 46, 58 (Avg:51)
416 Matt Gadsby Melcot Santini Metabolics L2 6:26:50 14.3, 12.7 13.49 44, 54, 67 (Avg:60)
417 Kirsty Nicholson Hill Stone Azmah Lame L2 6:27:12 13.5, 13.3 13.48 32, 58, 50 (Avg:54)
409 Grant Jocumsen Kalkadoon Sierra Lame L1 3:13:21 13.9 13.96 30, 53 (Avg:53)
415 John Davidson Flemingo Bomsaway Lame L1 3:24:47 13.1 13.18 32, 41 (Avg:41)
Middleweight
2 Ashley Cole Tonki Dee Boo Novak 1 (BC) 8:44:54 18.1, 17.2, 17.9, 17.7, 25.3 18.29 27, 52, 51, 58, 56, 44 (Avg:52)
35 Catherine Bailey Razorback Targaryen 2 8:45:38 18.9, 16.3, 18.0, 17.4, 25.5 18.26 31, 56, 52, 57, 57, 59 (Avg:56)
3 Nikki Sample Brookleigh Danu 3 8:58:57 18.7, 16.7, 17.7, 17.1, 19.4 17.81 33, 56, 60, 60, 57, 54 (Avg:57)
23 Steve Gray Shardell Indian Storm 4 9:13:44 17.9, 16.9, 18.0, 16.3, 16.7 17.34 30, 59, 59, 54, 57, 48 (Avg:55)
75 Renee Kelso SB Defino 5 9:42:36 19.2, 15.9, 17.2, 13.7, 14.5 16.48 30, 48, 55, 53, 56, 54 (Avg:53)
45 Sorsha Stuart-Rokvic Berwick Royal Music 6 9:53:12 15.6, 16.8, 16.3, 14.6, 18.2 16.18 57, 56, 54, 54, 55, 52 (Avg:54)
25 Sarah Parker Wongaburra Princess Hana 7 9:53:13 15.8, 15.4, 16.0, 15.8, 21.5 16.18 60, 58, 58, 60, 59, 57 (Avg:58)
38 Wendy Riha Bullio Gebreselassie 8 10:08:46 16.6, 15.9, 16.3, 14.0, 14.4 15.77 32, 55, 60, 58, 56, 57 (Avg:57)
12 Naomi McGaffin Kelkette Park Faris 9 10:14:29 16.3, 15.2, 16.0, 14.5, 15.2 15.62 36, 51, 54, 60, 58, 54 (Avg:55)
55 Amanda Kettlewell Oso Enigma 10 10:40:15 16.8, 15.0, 16.0, 12.5, 12.6 14.99 43, 55, 60, 52, 58, 52 (Avg:55)
29 Annette Bailey Bullio Charlotte 11 10:45:32 17.8, 14.6, 14.4, 12.4, 13.6 14.87 36, 57, 59, 60, 58, 52 (Avg:57)
8 Kate Pilley Box Hill Jackpot 12 10:45:35 19.4, 16.3, 15.5, 11.6, 9.2 14.87 46, 54, 57, 57, 55, 48 (Avg:54)
26 Rodney Curry Cooroora Allyjah 13 10:55:01 16.1, 15.5, 14.9, 12.8, 11.7 14.66 32, 54, 55, 58, 57, 48 (Avg:54)
43 Kelsey Irvine Karma 13 10:55:01 17.9, 15.0, 14.7, 11.2, 12.3 14.66 30, 54, 56, 59, 54, 55 (Avg:55)
10 Lizzie Moir Kurrajong Revolution 15 11:06:01 17.5, 15.5, 14.9, 11.0, 10.5 14.41 36, 53, 57, 57, 55, 56 (Avg:55)
58 Sonia Bonham Box Hill Sapphire 16 11:12:47 18.8, 15.2, 13.9, 11.4, 9.6 14.27 32, 56, 47, 51, 55, 50 (Avg:51)
78 Fiona Fenech Sweet Honesty Molleeh 17 11:50:54 15.7, 13.7, 13.4, 11.3, 11.5 13.50 44, 60, 58, 58, 56, 50 (Avg:56)
27 Tahlea Lochtenberg Henley Farm Nadif 18 11:51:16 16.1, 14.3, 12.8, 11.1, 11.0 13.50 27, 53, 56, 57, 52, 50 (Avg:53)
28 Linda Lochtenberg Matta Mia Dayimi 19 12:04:14 16.1, 14.3, 12.1, 10.3, 11.9 13.26 55, 55, 52, 53, 52, 51 (Avg:52)
21 Marty Bryson Miss Dior Mi 20 12:04:24 16.4, 17.4, 11.3, 10.3, 9.1 13.25 42, 58, 60, 55, 56, 52 (Avg:56)
31 Sam Peters Love In The Mist 20 12:04:24 16.0, 15.7, 13.2, 10.1, 8.8 13.25 40, 55, 60, 59, 55, 51 (Avg:56)
72 Kylie Jonkers Girilambone Seedy Bub 22 12:39:21 13.4, 11.7, 12.7, 11.6, 14.3 12.64 33, 49, 51, 56, 56, 52 (Avg:52)
71 Laura Axsentieff S'Shaada Material Girl 23 13:14:53 13.6, 12.7, 11.8, 9.4, 11.5 12.08 48, 60, 50, 55, 47, 50 (Avg:52)
1 Kristie Taprell Castlebar Mstake 24 13:20:07 13.0, 11.9, 11.5, 10.8, 12.1 12.00 40, 56, 52, 55, 53, 47 (Avg:52)
34 Susan Woodward Brookleigh Matisse 25 13:46:50 16.3, 11.1, 10.4, 9.1, 10.6 11.61 52, 52, 59, 60, 58, 50 (Avg:55)
46 Sharyn Coulston Berwick Red Princess 26 13:47:39 13.0, 11.6, 10.3, 10.4, 12.7 11.60 58, 60, 57, 56, 56, 50 (Avg:55)
16 Scarlet McQueen Elfar Krystella 27 14:00:52 14.0, 13.7, 11.7, 8.3, 7.4 11.42 32, 57, 61, 59, 49, 58, 55 (Avg:56)
67 Jess Dakin El'Maas Ginger Kisses 28 14:11:37 11.8, 11.1, 11.2, 10.3, 11.5 11.27 32, 51, 50, 51, 51, 57 (Avg:52)
64 Jo Bailey Crystan 29 14:17:42 11.6, 11.4, 10.4, 10.6, 12.1 11.19 60, 54, 50, 54, 54, 56 (Avg:53)
77 Jessica Williams Coolinda Park Winston 30 14:41:07 13.3, 11.7, 9.8, 8.8, 9.5 10.90 44, 53, 59, 58, 49, 51 (Avg:54)
40 Anne Lymbery Garonne Park Elmo 31 14:43:55 13.6, 10.9, 9.6, 9.3, 10.0 10.86 39, 52, 52, 55, 54, 47 (Avg:52)
39 Braden Cameron Garonne Park Turbo 32 14:43:57 13.6, 10.9, 9.6, 9.3, 10.0 10.86 44, 54, 52, 57, 50, 58, 52 (Avg:53)
20 Paul Bryson Alerion 33 14:49:57 15.3, 11.4, 8.4, 8.3, 10.9 10.79 73, 60, 58, 60, 54, 60 (Avg:58)
17 Daryl Owen De-Sharvarll El Dakar 34 14:54:18 12.5, 11.0, 10.3, 10.0, 8.2 10.73 30, 53, 47, 48, 46, 43 (Avg:47)
51 Samantha Yates Ausden Prince Mahal 35 14:54:32 13.6, 11.9, 10.4, 8.5, 7.3 10.73 26, 51, 50, 52, 50, 43 (Avg:49)
76 Phoebe Wilson Charaway True Perle 36 14:59:57 13.6, 12.8, 9.7, 7.6, 8.2 10.67 45, 58, 58, 48, 52, 50 (Avg:53)
4 Sallyann Duke Aloha Ramilez 37 15:05:59 12.1, 11.9, 9.6, 8.7, 9.1 10.60 49, 53, 55, 40, 58, 49, 51 (Avg:51)
5 Tanya Beacham Performance Park La Diva 38 15:06:08 12.0, 10.7, 10.5, 9.1, 9.1 10.59 28, 43, 43, 48, 47, 44 (Avg:45)
74 Danielle Kendall Sherloch 39 15:17:08 11.8, 10.7, 9.5, 9.7, 9.6 10.47 32, 46, 50, 43, 59, 50 (Avg:49)
62 Brandon Dick Danic Park Mirramah 40 15:41:02 14.3, 12.4, 10.5, 5.5, 8.6 10.20 30, 50, 58, 50, 49, 50, 44 (Avg:50)
61 Ken Moir Soliloquy 41 15:41:06 16.5, 13.3, 11.1, 8.7, 3.8 10.20 31, 58, 51, 55, 46, 46 (Avg:51)
53 Rick Brown Wattle Tree Flight 42 15:44:39 13.0, 10.6, 9.2, 8.1, 8.5 10.16 39, 55, 50, 44, 44, 57 (Avg:50)
52 Stephanie Malmborg Wattle Tree Gypsy 43 15:49:19 13.0, 10.6, 9.2, 8.1, 8.2 10.11 46, 58, 60, 53, 54, 53 (Avg:55)
50 Petria Haigh Indy 44 15:51:38 11.5, 10.0, 9.7, 8.9, 9.0 10.09 36, 50, 50, 52, 49, 50 (Avg:50)
22 Karen Lee Markus Romulus 45 15:59:41 13.8, 10.5, 8.9, 7.4, 8.4 10.00 52, 45, 46, 51, 48, 42 (Avg:46)
44 Tilly Goodhew Merlin GG 46 16:03:39 11.7, 10.5, 9.2, 7.6, 9.8 9.96 30, 49, 50, 51, 50, 52 (Avg:50)
13 Simon Thomas Rocky Point Sands of Sinhalite 47 16:09:45 11.7, 10.5, 9.4, 8.5, 7.7 9.90 38, 44, 57, 57, 55, 50, 50 (Avg:52)
47 Louis Ryan Kholonial Lightning Jack 48 16:11:34 10.5, 10.1, 9.1, 9.3, 9.8 9.88 35, 48, 52, 54, 53, 53 (Avg:52)
63 Melanie Scott Eminem Missella 49 16:14:27 11.4, 10.0, 8.5, 8.9, 10.1 9.85 31, 49, 52, 53, 50, 51 (Avg:51)
33 Katrina Newitt Eska 50 16:32:49 12.6, 10.6, 9.1, 6.5, 8.5 9.67 41, 56, 52, 48, 48, 46 (Avg:50)
32 Louise Piddington Bara Park Rhesus 51 16:32:51 12.6, 10.6, 9.1, 6.5, 8.5 9.67 44, 51, 55, 56, 53, 57, 51 (Avg:53)
15 Shea Reynolds Henley Farm Rasikh 52 16:59:41 12.0, 9.9, 8.1, 7.9, 7.9 9.41 36, 54, 57, 55, 58, 52 (Avg:55)
42 Judith Burton Woodbourne Jim Brown 53 18:18:55 10.2, 8.6, 7.5, 8.1, 9.2 8.74 55, 46, 50, 58, 50, 50, 52, 49 (Avg:50)
18 Renee Kirk JRK Phoenix 53 18:18:55 10.2, 8.6, 7.6, 7.9, 9.0 8.74 44, 47, 51, 60, 47, 48 (Avg:50)
65 Johanne Gardiner Dumaresq Valuta 55 18:30:41 10.2, 9.0, 7.8, 7.6, 7.5 8.64 40, 48, 53, 50, 44, 44 (Avg:47)
6 Phoebe Baczocha Colo Esther 56 18:30:47 9.9, 9.2, 7.8, 7.8, 7.4 8.64 29, 37, 44, 45, 41, 37 (Avg:40)
30 April Newman Tarnette 57 18:42:58 10.9, 8.4, 7.6, 7.0, 8.2 8.55 40, 49, 45, 46, 42, 43 (Avg:45)
60 Jacinta Stubbings Cameo Pygmalion 58 20:17:27 9.9, 8.3, 6.8, 6.7, 6.7 7.89 32, 54, 53, 60, 46, 50 (Avg:52)
56 Christiaan Perold Oso Kayla Lame L5 9:56:31 16.8, 15.0, 15.9, 14.5, 20.5 16.09 36, 56, 48, 60, 53, 51 (Avg:53)
59 Jenny Shepheard Currowan Maximus Lame L5 11:49:40 17.5, 15.9, 14.5, 15.1, 5.7 13.53 32, 52, 56, 53, 54, 48 (Avg:52)
79 Christal Rizk PVE Remington Lame L5 18:02:04 15.5, 10.8, 7.2, 6.6, 5.1 8.87 51, 60, 51, 54, 57, 44 (Avg:53)
11 Essy Mountford Razorback Kellys Fire Lame L4 9:01:33 17.6, 15.5, 17.4, 12.5 15.95 30, 53, 60, 48, 59 (Avg:55)
70 Saasha Grogan S'Shaada Afrika Lame L4 11:52:03 13.6, 12.7, 11.8, 9.4 12.13 32, 48, 49, 47, 49 (Avg:48)
19 Sue Vacher Miva Zamil Lame L4 13:16:30 14.2, 12.4, 8.9, 7.7 10.85 34, 53, 54, 55, 53 (Avg:53)
49 Keisuke Goda Teddy Metabolics severe L4 (Rep) 13:18:51 12.5, 11.0, 10.1, 8.8 10.82 27, 56, 52, 55, 55, 54 (Avg:54)
73 Xanthe Webb Allusion TA Lame L4 14:07:03 12.7, 9.6, 9.3, 8.7 10.20 43, 54, 55, 55, 50 (Avg:53)
7 Matthew Sample Stirling's Thor W/D on track L3 6:57:08 - 17.55 38, 55, 57, 50 (Avg:54)
48 Virginia Barber Fevers Frederique Lame L3 7:17:38 17.6, 16.1, 16.3 16.73 37, 57, 59, 55 (Avg:57)
57 Tracey Eastaughffe Moondarra Elton W/D after vetting L3 9:25:21 - 12.95 34, 48, 51, 53 (Avg:50)
66 Bec Miller Boonara Dark Ruby Lame L3 10:41:40 11.8, 11.1, 11.1 11.41 32, 50, 53, 55 (Avg:52)
68 Gayle Holmes Captains Creek Prancer Lame L3 10:59:47 12.6, 10.8, 9.8 11.09 29, 52, 49, 50 (Avg:50)
41 Jil Bourton Bacchante Catching Fire Lame L3 10:59:49 12.6, 10.8, 9.8 11.09 43, 50, 49, 53 (Avg:50)
54 Victoria Bice Oso Meeka Lame L2 5:28:22 16.9, 14.9 15.90 41, 49, 54 (Avg:51)
36 Briony Ledingham Brynjell Dynamo Lame L2 6:39:07 13.6, 12.5 13.08 35, 50, 52 (Avg:51)
9 Greta Johnson Taeaura Shayarnah Heart Rate L2 6:44:29 14.6, 11.4 12.91 71, 51, 68 (Avg:59)
24 Hannah Cossor Newbury Illustraa's Impact Lame L1 2:43:32 16.5 16.51 37, 60 (Avg:60)
14 Debbie Grull Lauralyn Notorious Lame L1 2:55:21 15.3 15.40 29, 42 (Avg:42)
37 Ian Curtis Blake's Heaven Summer Wind Lame L1 3:43:59 12.0 12.05 44, 54 (Avg:54)
69 Jess Kennedy Flemingo Queen Metabolics moderate L1 0:00:00 1.8 - 38, 36 (Avg:36)
Lightweight
317 Modena Schofield Fortaleza Abbe Rose 1 (BC) 9:27:43 18.9, 16.0, 17.2, 14.4, 17.4 16.91 34, 52, 58, 52, 60, 48 (Avg:54)
316 Tracy-Lee Cossor Wybalena Lodge Aflirt 2 9:53:16 15.8, 15.4, 16.0, 15.9, 21.2 16.18 54, 54, 58, 54, 56, 55 (Avg:55)
334 Michelle Cranston Yallaroo Amira 3 10:20:07 17.1, 14.8, 14.6, 14.9, 15.7 15.48 46, 60, 57, 55, 59, 52 (Avg:56)
353 Clare Fleming Amarin Brindi 3 10:20:07 16.6, 14.8, 15.3, 14.5, 15.9 15.48 28, 51, 52, 55, 51, 48 (Avg:51)
352 Naomi Lee Duray Spartakos 3 10:20:07 16.6, 14.8, 15.3, 14.4, 16.1 15.48 28, 53, 51, 55, 55, 55 (Avg:53)
348 Shelley Chapman Shanelli-Park Pirouette 6 10:38:14 16.6, 15.0, 14.6, 13.6, 13.9 15.04 36, 52, 59, 59, 56, 50 (Avg:55)
349 Maeve Paten Box Hill Nitro 7 10:38:17 16.6, 15.0, 14.5, 13.5, 14.1 15.04 28, 47, 57, 60, 55, 52 (Avg:54)
332 Chloe Hayden Oso Mystery Man 8 10:40:23 16.8, 15.3, 15.3, 12.8, 12.5 14.99 40, 48, 57, 54, 51, 50 (Avg:52)
303 Gina Thompson Henley Farm Islah 9 10:47:23 17.1, 15.5, 15.4, 14.0, 9.8 14.83 29, 47, 52, 53, 51, 42 (Avg:49)
351 Vic Alran My Name is Earl 10 11:51:15 16.6, 14.7, 11.6, 12.3, 10.6 13.50 35, 55, 58, 57, 55, 52, 52 (Avg:54)
362 Brooke Marshall Secret Weapon 11 12:11:46 14.4, 12.6, 13.5, 12.4, 11.4 13.12 48, 52, 56, 52, 54, 57 (Avg:54)
336 Sarah McLaughlin Tonki Dee Boo Shania 12 12:18:08 12.8, 12.3, 13.8, 13.0, 13.7 13.01 36, 46, 56, 55, 60, 52 (Avg:53)
333 Alana Simpson Meea 13 12:40:52 14.2, 12.4, 12.0, 10.4, 13.7 12.62 54, 55, 55, 55, 57, 56 (Avg:55)
313 Ute Jordan Golden Thunder 14 12:43:00 16.5, 13.3, 11.3, 9.5, 11.1 12.58 47, 50, 52, 50, 56, 49 (Avg:51)
355 Rachel Brown Houdini 15 13:14:52 15.5, 11.6, 10.1, 11.2, 11.8 12.08 33, 56, 56, 50, 52, 54 (Avg:53)
329 Tahlia Franke Castlebar Temptation 16 13:20:08 13.0, 11.8, 11.5, 10.8, 12.2 12.00 32, 51, 56, 54, 54, 55 (Avg:54)
302 Julie Brooks A'landell Pirate 17 13:44:40 15.5, 12.3, 10.4, 9.0, 9.6 11.64 58, 52, 59, 54, 50, 57 (Avg:54)
304 Nicole Porter Avondale Silvertron 18 13:46:12 13.5, 11.5, 11.6, 9.3, 10.9 11.62 58, 54, 57, 53, 56, 55 (Avg:55)
345 Sue Sutcliffe Ra-Anji Firefly 19 13:47:19 13.4, 11.9, 10.6, 9.6, 11.4 11.60 30, 55, 52, 54, 53, 53 (Avg:53)
335 Sara Worner Box Hill Tilly Kay 20 13:54:37 15.4, 12.2, 10.5, 8.8, 9.1 11.50 44, 58, 55, 53, 54, 57 (Avg:55)
341 Kate Appleby Bashan Bayda 21 14:11:40 11.8, 11.1, 11.1, 10.3, 11.6 11.27 40, 59, 53, 55, 54, 52 (Avg:54)
331 Maree Siliato Petama Flicker 22 14:17:33 13.0, 11.4, 10.0, 9.8, 10.9 11.19 54, 54, 60, 55, 58, 49 (Avg:55)
350 Virginia Dale Picnic Park Smart Return 23 14:43:16 12.6, 10.7, 10.6, 9.5, 9.5 10.87 29, 59, 60, 56, 55, 47 (Avg:55)
309 Linda Logan Willow Valley Dartanyan 24 14:43:17 12.4, 10.7, 10.5, 9.6, 9.9 10.87 33, 47, 40, 49, 47, 44, 44 (Avg:45)
344 Janelle Taylor Calico Jarkamarn 25 14:49:27 13.6, 11.3, 10.0, 8.5, 8.9 10.79 36, 47, 47, 49, 46, 49 (Avg:47)
354 Tegan Symington Flemingo Klaus 26 15:03:21 11.5, 10.5, 10.0, 9.8, 11.0 10.63 28, 48, 52, 49, 44, 54, 52 (Avg:49)
323 Talyn Nix Macrocarpa Red Bull 27 15:10:10 10.9, 10.5, 9.5, 10.8, 11.4 10.55 34, 48, 53, 50, 51, 50 (Avg:50)
346 Aleisha Natale Ransome Royale 28 15:14:23 12.6, 10.4, 9.3, 9.4, 10.2 10.50 29, 52, 48, 52, 50, 51 (Avg:50)
347 Cindy Holden Sabbiyon 29 15:14:25 12.6, 10.4, 9.3, 9.3, 10.3 10.50 37, 56, 54, 54, 55, 59 (Avg:55)
359 Alexandra Toft Dream Big te 30 15:14:53 11.8, 10.7, 9.5, 9.8, 9.6 10.49 53, 48, 55, 45, 56, 43 (Avg:49)
311 Wendy Butler Ransome Rascal 31 15:29:02 12.0, 10.1, 9.9, 8.9, 9.5 10.33 36, 49, 52, 51, 56, 51 (Avg:51)
322 Talea Hasko-Stewart Blake's Heaven Avalon 32 15:31:19 12.0, 10.1, 9.9, 9.0, 9.4 10.31 42, 48, 54, 49, 52, 55 (Avg:51)
356 Lexi Webb Enola 33 15:31:49 12.7, 9.6, 9.4, 8.9, 10.8 10.30 31, 46, 49, 58, 51, 55 (Avg:51)
342 Michele Ladmore Azale Aladdin 34 15:51:40 14.0, 12.5, 9.7, 5.6, 8.7 10.09 51, 54, 54, 55, 54, 52 (Avg:53)
343 Allix Jones Boonara Shere Khan 35 15:56:55 11.4, 10.1, 9.3, 8.9, 9.4 10.03 30, 50, 56, 54, 53, 49 (Avg:52)
306 Kasey Thomas Pyrenees Stardom 36 16:06:16 11.7, 10.5, 9.4, 8.3, 8.2 9.94 35, 49, 49, 53, 56, 50 (Avg:51)
318 Shannon Decker Rocky Point Sands of Cinnabar 37 16:06:23 11.7, 10.5, 9.5, 8.3, 8.0 9.93 33, 45, 49, 56, 50, 45 (Avg:49)
357 Amanda Powell Greywood Karbine 38 16:38:30 11.8, 9.7, 8.5, 8.3, 8.6 9.61 38, 49, 47, 48, 56, 49 (Avg:49)
328 Ashleigh Grassick Dunbar Caspian 39 16:59:17 11.9, 10.1, 8.1, 7.9, 8.0 9.42 30, 51, 55, 47, 55, 55 (Avg:52)
360 Aimee Jeffrey Die Kinder Kosmonaut 40 17:27:57 10.2, 8.7, 8.7, 9.2, 8.3 9.16 52, 42, 46, 41, 45, 39 (Avg:42)
312 Tayla Innes Lindall Farouk 41 18:11:08 10.7, 8.6, 8.3, 7.1, 8.6 8.80 34, 53, 52, 46, 50, 44 (Avg:49)
310 Carla Jones Kholonial Bartholomew 41 18:11:08 10.7, 8.6, 8.3, 7.1, 8.6 8.80 42, 53, 48, 49, 56, 53 (Avg:51)
338 Pandora Bevan My Fair Lady 43 18:11:18 9.7, 8.5, 7.3, 9.2, 10.6 8.80 36, 48, 51, 54, 59, 50 (Avg:52)
308 Tracey Hutchinson Churinga Chillie Morning 44 18:18:56 10.2, 8.6, 7.7, 7.9, 9.0 8.74 34, 43, 45, 47, 44, 43 (Avg:44)
327 Shannon Hill Burren-dah Narla 45 19:38:45 11.1, 8.1, 7.7, 6.2, 6.5 8.14 31, 44, 57, 52, 53, 47 (Avg:50)
305 Nicky Robinson Sterling Nakeeta 46 19:52:00 10.5, 8.3, 6.4, 7.1, 7.6 8.05 56, 57, 60, 57, 51, 49 (Avg:54)
326 Lynette Fitzpatrick Diamond 47 20:01:29 9.9, 7.7, 7.5, 6.8, 7.0 7.99 54, 51, 55, 59, 54, 54 (Avg:54)
324 Arabella Ward Palm Beach MA Lame L5 12:29:27 14.7, 12.8, 11.6, 11.4, 12.8 12.81 35, 60, 55, 51, 56, 52 (Avg:54)
314 Karen Winkel Ranek Boz Lame L5 14:07:10 13.8, 11.7, 9.0, 9.4, 14.2 11.33 35, 43, 50, 45, 46, 52 (Avg:47)
339 Victoria Clarke Maloo Vale Amir Halo Lame L5 15:14:53 12.9, 10.2, 9.4, 8.9, 10.3 10.49 38, 51, 47, 51, 52, 49 (Avg:50)
320 Selwyn Boler Bullio Gold Son W/D after vetting L4 10:44:50 - 13.40 58, 51, 57, 57, 57 (Avg:55)
315 Aanja Hamelink Picnic Park Klassiqua Lame L4 12:59:56 13.8, 11.7, 9.0, 9.4 11.08 32, 56, 51, 49, 50 (Avg:51)
340 Chintzia Campo Maraahn E'Jaaz Lame L4 13:42:27 12.9, 10.2, 9.4, 8.9 10.51 29, 52, 52, 55, 49 (Avg:52)
319 Narelle Childs Lasca's Leroy Lame L3 8:57:52 16.3, 12.5, 12.2 13.61 48, 56, 59, 53 (Avg:56)
361 Ash Christofis Lightning McQueen W/D after vetting L3 9:00:40 - 13.54 36, 48, 47, 50 (Avg:48)
363 Amaya Thomas Concord Lame L3 10:55:04 11.8, 9.7, 12.4 11.17 40, 50, 51, 43, 0, 0 (Avg:28)
307 Jenny Thompson Stirling's Vada Lame L3 11:08:24 13.8, 10.5, 8.9 10.95 43, 48, 48, 53 (Avg:49)
325 Heather Stuchbree Sangah Sahreen W/D after vetting L3 (Rep) 11:37:56 - 10.49 32, 59, 54, 46, 46 (Avg:51)
301 Ema Basic Picnic Park Vanita Metabolics severe L2 5:17:09 16.1, 16.8 16.46 42, 49, 49 (Avg:49)
330 Kaylea Maher Shardell Renegade Lame L2 6:16:45 13.9, 13.7 13.86 35, 47, 54 (Avg:50)
337 Annette Chamberlain Annordean Lady Annette W/D on track L2 8:39:40 - 10.04 36, 48, 39 (Avg:43)
358 Molly Choyce Abberlyn Park Astanna Lame L2 8:55:29 9.6, 9.8 9.75 34, 43, 35 (Avg:39)
Junior
219 Mary Duncan Bonnybrooke Samarai 1 (BC) 9:42:36 18.5, 15.7, 14.0, 22.7, 13.7 16.48 33, 52, 54, 51, 52, 51 (Avg:52)
201 Emma Ireland Bullio Maiko 2 11:05:59 17.6, 15.5, 17.2, 9.1, 11.2 14.41 31, 51, 54, 58, 52, 49 (Avg:52)
216 Dylan Stevens Aloha Desert Thor 3 11:35:27 13.1, 12.8, 12.6, 21.6, 14.0 13.80 31, 51, 59, 57, 51, 51 (Avg:53)
203 Kaitlyn Mercieca Henley Farm Burosh 4 12:33:16 12.8, 11.8, 11.8, 13.0, 18.0 12.74 56, 56, 60, 53, 54, 59 (Avg:56)
202 Neeve Whittaker Drumlin History 5 13:13:13 13.8, 12.1, 10.5, 11.4, 12.8 12.10 32, 50, 54, 50, 51, 48 (Avg:50)
209 Indi Else Shazaam 6 14:29:35 11.5, 10.8, 10.0, 10.4, 13.9 11.04 33, 47, 54, 48, 54, 44 (Avg:49)
204 Alexa Parker Highland View Mustang Sally 7 14:39:38 14.7, 11.7, 9.1, 8.1, 10.5 10.91 36, 52, 56, 52, 57, 57 (Avg:54)
217 Noah Hoogland Rhythm Dancer 8 14:49:25 12.5, 10.9, 11.2, 8.6, 9.1 10.79 37, 39, 44, 46, 47, 44 (Avg:44)
210 Bella Brassington Splendacrest Clara 9 14:56:29 11.7, 11.1, 10.2, 9.2, 10.2 10.71 32, 60, 55, 54, 54, 54 (Avg:55)
206 Tayla Hunt Castlebar Icon 10 15:36:38 11.3, 10.1, 9.3, 9.0, 11.9 10.25 60, 53, 59, 54, 58, 51 (Avg:55)
214 Jarrah Kelly Bendinni Rafiki 11 15:54:03 9.7, 9.1, 9.9, 11.1, 13.5 10.06 44, 52, 60, 55, 54, 49 (Avg:54)
220 Eadie McWilliam Limited Edition te 12 17:16:22 10.3, 9.1, 8.7, 8.3, 9.5 9.26 30, 46, 60, 45, 48, 44 (Avg:48)
218 Molly Renner Matta Mia Qaddara 12 17:16:22 10.2, 9.1, 8.7, 8.3, 9.6 9.26 41, 52, 60, 60, 54, 54 (Avg:56)
207 Sanjay Nix Macrocarpa Kaos 14 17:35:57 10.9, 10.5, 9.0, 5.7, 8.6 9.09 48, 59, 55, 53, 49, 52 (Avg:53)
205 Tegan Ashby Blake's Heaven Annabelle 15 18:11:15 11.1, 8.5, 7.8, 7.7, 8.2 8.80 32, 37, 45, 46, 50, 41 (Avg:43)
211 Georgie Barber Burralga Athena Lame L5 9:52:43 17.6, 16.1, 16.3, 14.8, 14.5 16.20 39, 54, 55, 57, 59, 51 (Avg:55)
213 Poppy Kettlewell Oso Evita W/D after vetting L3 7:41:14 - 15.87 60, 60, 56, 55 (Avg:57)
208 Indra Hofstee Royal Rose Malibu Lame L3 11:17:07 11.5, 10.7, 10.0 10.81 35, 60, 53, 54 (Avg:55)
212 Charlotte Williamson Truly Uniquue J-S Lame L2 8:06:58 11.5, 9.9 10.72 29, 59, 49 (Avg:54)
215 Lara Duff Box Hill Pegasus Lame L1 2:23:27 18.8 18.82 40, 49 (Avg:49)
221 Jorgi Jeffrey Kaj Emeline Heart Rate L1 4:22:47 10.2 10.27 39, 68 (Avg:68)